FranceFixed distance
La SaintéLyon
3 Dec2022
Distance
78km
Finishers
5,3054,724 men575 women
Winning time
5:47:35h
Median pace
6.80km/h
Pace distribution
5,299 finishers · 4.66–13.46 km/h · mean 6.94
Every finisher ran the same 78 km course, so these paces are directly comparable.
Histogram of finisher pace. 5,299 finishers ranged from 4.66 to 13.46 kilometres per hour, with a mean of 6.94 and a median of 6.80. The busiest band is 6.5 to 7.0 kilometres per hour, with 1,005 finishers.
Results
Ranks 2,901–2,950 of 5,299
| Rank | Runner | Time | Pace | Cat. | Placing |
|---|---|---|---|---|---|
| 2904 | Gauthier, DavidFranceMan *Grenoble | 11:41:07h | 6.67 | M40 | 2707th M · 387th M40 |
| 2905 | Moreau, BaptisteBelgiumMan | 11:41:08h | 6.67 | M23 | 2708th M · 1172nd M23 |
| 2905 | Guillemin, CedricFranceMan | 11:41:08h | 6.67 | M23 | 2708th M · 1172nd M23 |
| 2905 | Decor, SebastienFranceMan Team Seals | 11:41:08h | 6.67 | M40 | 2708th M · 388th M40 |
| 2905 | Pierret, NicolasFranceMan | 11:41:08h | 6.67 | MU23 | 2708th M · 117th MU23 |
| 2909 | Garnier, LudovicFranceMan | 11:41:10h | 6.67 | M23 | 2712th M · 1174th M23 |
| 2910 | Delplanque, AlexisFranceMan *Le Creusot | 11:41:12h | 6.67 | M23 | 2713th M · 1175th M23 |
| 2911 | Troubat, JulienFranceMan *Villeneuve-D'Ascq | 11:41:18h | 6.67 | M23 | 2714th M · 1176th M23 |
| 2911 | Diboine, AurelienFranceMan | 11:41:18h | 6.67 | M35 | 2714th M · 493rd M35 |
| 2913 | Lopes, StephaneFranceMan Stadium Montigny Athle... | 11:41:19h | 6.67 | M45 | 2716th M · 288th M45 |
| 2914 | Frantz, SebastienFranceMan | 11:41:26h | 6.67 | M23 | 2717th M · 1177th M23 |
| 2915 | Guilhermet, NicolasFranceMan | 11:41:37h | 6.67 | M35 | 2718th M · 494th M35 |
| 2916 | Mora, DamienFranceMan *Neuilly-Plaisance | 11:41:39h | 6.67 | M40 | 2719th M · 389th M40 |
| 2917 | Massardier, LoicFranceMan | 11:41:40h | 6.67 | M45 | 2720th M · 289th M45 |
| 2918 | Merlatti, GregoryFranceMan | 11:41:42h | 6.67 | M40 | 2721st M · 390th M40 |
| 2919 | Asset, SebastienFranceMan *Marcq-En-Barœul | 11:41:47h | 6.67 | M45 | 2722nd M · 290th M45 |
| 2919 | Pando, NicolasFranceMan | 11:41:47h | 6.67 | M35 | 2722nd M · 495th M35 |
| 2921 | Renard, DelphineBelgiumWoman Biotrail | 11:41:49h | 6.67 | W40 | 198th F · 35th W40 |
| 2921 | Rebulard, ChristopheFranceMan *Lagny-Sur-Marne | 11:41:49h | 6.67 | M45 | 2724th M · 291st M45 |
| 2923 | Barillot, FlorianFranceMan | 11:41:56h | 6.67 | M23 | 2725th M · 1178th M23 |
| 2923 | Lemoine, AnthonyFranceMan Lemon Grass | 11:41:56h | 6.67 | M35 | 2725th M · 496th M35 |
| 2925 | Leblois, LouisFranceMan | 11:41:57h | 6.67 | MU23 | 2727th M · 118th MU23 |
| 2926 | Brotte, AmbroiseFranceMan Pause Cafe | 11:41:58h | 6.67 | M40 | 2728th M · 391st M40 |
| 2926 | Saison, MaximeFranceMan Sport Nature Montgaihard | 11:41:58h | 6.67 | M23 | 2728th M · 1179th M23 |
| 2928 | Badinand, HugoFranceMan | 11:42:00h | 6.67 | M23 | 2730th M · 1180th M23 |
| 2929 | Brabant, PhilippeFranceMan *Fonsorbes | 11:42:01h | 6.67 | M55 | 2731st M · 61st M55 |
| 2930 | Zasso, MichaelFranceMan | 11:42:02h | 6.67 | M45 | 2732nd M · 292nd M45 |
| 2931 | Coutaz, PascalFranceMan CAP EN Luberon | 11:42:03h | 6.67 | M50 | 2733rd M · 172nd M50 |
| 2932 | Wolville, RomainFranceMan | 11:42:05h | 6.67 | MU23 | 2734th M · 119th MU23 |
| 2932 | Lavaux, CyrilFranceMan *Charmont-Sous-Barbuise | 11:42:05h | 6.67 | M40 | 2734th M · 392nd M40 |
| 2934 | Ferry, ChristopheFranceMan Team Tuche | 11:42:06h | 6.67 | M50 | 2736th M · 173rd M50 |
| 2935 | Velu, LudovicFranceMan *Cachan | 11:42:07h | 6.67 | M50 | 2737th M · 174th M50 |
| 2936 | Meurat, FabriceFranceMan Team 100%Bpm | 11:42:11h | 6.67 | M35 | 2738th M · 497th M35 |
| 2937 | Voye, JulienFranceMan Team 100% BPM | 11:42:12h | 6.67 | M35 | 2739th M · 498th M35 |
| 2938 | Toumelin, PierreFranceMan | 11:42:16h | 6.66 | M23 | 2740th M · 1181st M23 |
| 2939 | Triomphe, ThomasFranceMan | 11:42:23h | 6.66 | M45 | 2741st M · 293rd M45 |
| 2940 | Luciani, Jean-FrancoisFranceMan CAF Chambéry | 11:42:35h | 6.66 | M40 | 2742nd M · 393rd M40 |
| 2941 | Parthenay, BrunoFranceMan *Roissy-En-Brie | 11:42:36h | 6.66 | M45 | 2743rd M · 294th M45 |
| 2942 | Grandjacquot, LaurentFranceMan | 11:42:38h | 6.66 | M50 | 2744th M · 175th M50 |
| 2943 | Gascard, CedricFranceMan *Chenôve | 11:42:43h | 6.66 | M23 | 2745th M · 1182nd M23 |
| 2944 | Cordier, EmilieFranceWoman | 11:42:44h | 6.66 | W50 | 199th F · 10th W50 |
| 2944 | Albistur, VincentFranceMan | 11:42:44h | 6.66 | M23 | 2746th M · 1183rd M23 |
| 2946 | Souchu, AurelienFranceMan *Chaudfontaine | 11:42:45h | 6.66 | M35 | 2747th M · 499th M35 |
| 2947 | Gaulier, JulienFranceMan *Tassin-La-Demi-Lune | 11:42:46h | 6.66 | M40 | 2748th M · 394th M40 |
| 2948 | Georges, ThibaudFranceMan | 11:42:55h | 6.66 | M23 | 2749th M · 1184th M23 |
| 2949 | Charrier, FlorentFranceMan | 11:42:56h | 6.66 | M23 | 2750th M · 1185th M23 |
| 2950 | Coquin, MathieuFranceMan | 11:42:57h | 6.66 | M23 | 2751st M · 1186th M23 |
| 2950 | Verdier, PaulFranceMan *Paris | 11:42:57h | 6.66 | M23 | 2751st M · 1186th M23 |
| 2952 | Labertrandie, MathieuFranceMan les Fucky Arlesiens | 11:43:01h | 6.66 | M35 | 2753rd M · 500th M35 |
| 2953 | Grin, JulienSwitzerlandMan | 11:43:07h | 6.66 | M40 | 2754th M · 395th M40 |
- 2904Gauthier, DavidFranceMan*Grenoble2707th M · 387th M40Time11:41:07hPace6.67Cat.M40
- 2905Moreau, BaptisteBelgiumMan2708th M · 1172nd M23Time11:41:08hPace6.67Cat.M23
- 2905Guillemin, CedricFranceMan2708th M · 1172nd M23Time11:41:08hPace6.67Cat.M23
- 2905Decor, SebastienFranceManTeam Seals2708th M · 388th M40Time11:41:08hPace6.67Cat.M40
- 2905Pierret, NicolasFranceMan2708th M · 117th MU23Time11:41:08hPace6.67Cat.MU23
- 2909Garnier, LudovicFranceMan2712th M · 1174th M23Time11:41:10hPace6.67Cat.M23
- 2910Delplanque, AlexisFranceMan*Le Creusot2713th M · 1175th M23Time11:41:12hPace6.67Cat.M23
- 2911Troubat, JulienFranceMan*Villeneuve-D'Ascq2714th M · 1176th M23Time11:41:18hPace6.67Cat.M23
- 2911Diboine, AurelienFranceMan2714th M · 493rd M35Time11:41:18hPace6.67Cat.M35
- 2913Lopes, StephaneFranceManStadium Montigny Athle...2716th M · 288th M45Time11:41:19hPace6.67Cat.M45
- 2914Frantz, SebastienFranceMan2717th M · 1177th M23Time11:41:26hPace6.67Cat.M23
- 2915Guilhermet, NicolasFranceMan2718th M · 494th M35Time11:41:37hPace6.67Cat.M35
- 2916Mora, DamienFranceMan*Neuilly-Plaisance2719th M · 389th M40Time11:41:39hPace6.67Cat.M40
- 2917Massardier, LoicFranceMan2720th M · 289th M45Time11:41:40hPace6.67Cat.M45
- 2918Merlatti, GregoryFranceMan2721st M · 390th M40Time11:41:42hPace6.67Cat.M40
- 2919Asset, SebastienFranceMan*Marcq-En-Barœul2722nd M · 290th M45Time11:41:47hPace6.67Cat.M45
- 2919Pando, NicolasFranceMan2722nd M · 495th M35Time11:41:47hPace6.67Cat.M35
- 2921Renard, DelphineBelgiumWomanBiotrail198th F · 35th W40Time11:41:49hPace6.67Cat.W40
- 2921Rebulard, ChristopheFranceMan*Lagny-Sur-Marne2724th M · 291st M45Time11:41:49hPace6.67Cat.M45
- 2923Barillot, FlorianFranceMan2725th M · 1178th M23Time11:41:56hPace6.67Cat.M23
- 2923Lemoine, AnthonyFranceManLemon Grass2725th M · 496th M35Time11:41:56hPace6.67Cat.M35
- 2925Leblois, LouisFranceMan2727th M · 118th MU23Time11:41:57hPace6.67Cat.MU23
- 2926Brotte, AmbroiseFranceManPause Cafe2728th M · 391st M40Time11:41:58hPace6.67Cat.M40
- 2926Saison, MaximeFranceManSport Nature Montgaihard2728th M · 1179th M23Time11:41:58hPace6.67Cat.M23
- 2928Badinand, HugoFranceMan2730th M · 1180th M23Time11:42:00hPace6.67Cat.M23
- 2929Brabant, PhilippeFranceMan*Fonsorbes2731st M · 61st M55Time11:42:01hPace6.67Cat.M55
- 2930Zasso, MichaelFranceMan2732nd M · 292nd M45Time11:42:02hPace6.67Cat.M45
- 2931Coutaz, PascalFranceManCAP EN Luberon2733rd M · 172nd M50Time11:42:03hPace6.67Cat.M50
- 2932Wolville, RomainFranceMan2734th M · 119th MU23Time11:42:05hPace6.67Cat.MU23
- 2932Lavaux, CyrilFranceMan*Charmont-Sous-Barbuise2734th M · 392nd M40Time11:42:05hPace6.67Cat.M40
- 2934Ferry, ChristopheFranceManTeam Tuche2736th M · 173rd M50Time11:42:06hPace6.67Cat.M50
- 2935Velu, LudovicFranceMan*Cachan2737th M · 174th M50Time11:42:07hPace6.67Cat.M50
- 2936Meurat, FabriceFranceManTeam 100%Bpm2738th M · 497th M35Time11:42:11hPace6.67Cat.M35
- 2937Voye, JulienFranceManTeam 100% BPM2739th M · 498th M35Time11:42:12hPace6.67Cat.M35
- 2938Toumelin, PierreFranceMan2740th M · 1181st M23Time11:42:16hPace6.66Cat.M23
- 2939Triomphe, ThomasFranceMan2741st M · 293rd M45Time11:42:23hPace6.66Cat.M45
- 2940Luciani, Jean-FrancoisFranceManCAF Chambéry2742nd M · 393rd M40Time11:42:35hPace6.66Cat.M40
- 2941Parthenay, BrunoFranceMan*Roissy-En-Brie2743rd M · 294th M45Time11:42:36hPace6.66Cat.M45
- 2942Grandjacquot, LaurentFranceMan2744th M · 175th M50Time11:42:38hPace6.66Cat.M50
- 2943Gascard, CedricFranceMan*Chenôve2745th M · 1182nd M23Time11:42:43hPace6.66Cat.M23
- 2944Cordier, EmilieFranceWoman199th F · 10th W50Time11:42:44hPace6.66Cat.W50
- 2944Albistur, VincentFranceMan2746th M · 1183rd M23Time11:42:44hPace6.66Cat.M23
- 2946Souchu, AurelienFranceMan*Chaudfontaine2747th M · 499th M35Time11:42:45hPace6.66Cat.M35
- 2947Gaulier, JulienFranceMan*Tassin-La-Demi-Lune2748th M · 394th M40Time11:42:46hPace6.66Cat.M40
- 2948Georges, ThibaudFranceMan2749th M · 1184th M23Time11:42:55hPace6.66Cat.M23
- 2949Charrier, FlorentFranceMan2750th M · 1185th M23Time11:42:56hPace6.66Cat.M23
- 2950Coquin, MathieuFranceMan2751st M · 1186th M23Time11:42:57hPace6.66Cat.M23
- 2950Verdier, PaulFranceMan*Paris2751st M · 1186th M23Time11:42:57hPace6.66Cat.M23
- 2952Labertrandie, MathieuFranceManles Fucky Arlesiens2753rd M · 500th M35Time11:43:01hPace6.66Cat.M35
- 2953Grin, JulienSwitzerlandMan2754th M · 395th M40Time11:43:07hPace6.66Cat.M40
Showing ranks 2,901–2,950 of 5,299